Terminal Aerodrome Forecast
Issued by NWS Binghamton, NY

Home | Current Version | Previous Version | Text Only | Print | Product List | Glossary On
Versions: 1 2 3 4 5 6 7 8 9 10 11 12 13 14 15 16 17 18 19 20 21 22 23 24
000
FTUS41 KBGM 230500
TAFSYR
TAF
KSYR 230534Z 2306/2406 25009KT P6SM FEW030 BKN045
      TEMPO 2310/2314 BKN025
     FM231500 28008KT P6SM BKN040
     FM240100 10003KT P6SM FEW040=

USA.gov is the U.S. government's official web portal to all federal, state and local government web resources and services.